CheckWX is a tool to help pilots better visualize weather data.  It is not intended as a substitute for an official pre-flight weather briefing.

20:30:30 UTC

KPDC METAR
Prairie Du Chien Municipal Airport
Prairie Du Chien, Wisconsin, USA
Current

16 mins ago

KPDC 182015Z AUTO 24005KT 10SM OVC030 M04/M11 A3045 RMK AO2 T10381113
Observed
Feb-18 @ 20:15 UTC
Wind
  • 240° at 5 KTS
Visibility
10 SM
Flight Rules
MVFR
Cloud Levels
  • Overcast at 3,000' AGL
Temperature
-4°C / 25°F
Dewpoint
-11°C / 12°F
Humidity
59%
Altimeter
30.45" Hg
Pressure
1031.11 hPa
Previous

36 mins ago

KPDC 181955Z AUTO 28004KT 10SM BKN030 M04/M12 A3044 RMK AO2 P0002 T10411117
Observed
Feb-18 @ 19:55 UTC
Wind
  • 280° at 4 KTS
Visibility
10 SM
Flight Rules
MVFR
Cloud Levels
  • Broken at 3,000' AGL
Temperature
-4°C / 25°F
Dewpoint
-12°C / 10°F
Humidity
54%
Altimeter
30.44" Hg
Pressure
1030.81 hPa
Current Rain
0.02"
Previous

56 mins ago

KPDC 181935Z AUTO 27003KT 10SM SCT030 M04/M12 A3044 RMK AO2 P0002 T10391116
Observed
Feb-18 @ 19:35 UTC
Wind
  • 270° at 3 KTS
Visibility
10 SM
Flight Rules
VFR
Cloud Levels
  • Scattered at 3,000' AGL
Temperature
-4°C / 25°F
Dewpoint
-12°C / 10°F
Humidity
54%
Altimeter
30.44" Hg
Pressure
1030.81 hPa
Current Rain
0.02"